createdAt,value
2022-12-18T00:01:21.097Z,101992.22
2022-12-18T00:03:48.515Z,101999.06
2022-12-18T00:06:16.327Z,101997.53
2022-12-18T00:08:44.482Z,102004.06
2022-12-18T00:11:16.930Z,102006.09
2022-12-18T00:13:44.073Z,102010.09
2022-12-18T00:16:13.461Z,102013.91
2022-12-18T00:18:40.806Z,102011.63
2022-12-18T00:21:11.022Z,102014.72
2022-12-18T00:23:40.314Z,101999.22
2022-12-18T00:26:10.992Z,101994.34
2022-12-18T00:28:37.830Z,101986.53
2022-12-18T00:31:06.437Z,101985.59
2022-12-18T00:33:33.483Z,101981.38
2022-12-18T00:36:05.304Z,101991.97
2022-12-18T00:38:32.872Z,101995.56
2022-12-18T00:40:59.478Z,102003.28
2022-12-18T00:43:26.005Z,101996.34
2022-12-18T00:45:53.570Z,101999.50
2022-12-18T00:48:20.178Z,102005.91
2022-12-18T00:50:48.598Z,101994.13
2022-12-18T00:53:15.525Z,101996.28
2022-12-18T00:55:42.583Z,101998.72
2022-12-18T00:58:10.393Z,102001.50
2022-12-18T01:00:37.218Z,101995.84
2022-12-18T01:03:04.666Z,102004.59
2022-12-18T01:05:31.518Z,101998.94
2022-12-18T01:07:58.552Z,101999.78
2022-12-18T01:10:25.937Z,101997.03
2022-12-18T01:12:52.692Z,102001.41
2022-12-18T01:15:20.274Z,101996.13
2022-12-18T01:17:46.849Z,101994.28
2022-12-18T01:20:14.028Z,101992.84
2022-12-18T01:22:40.777Z,101982.50
2022-12-18T01:25:08.160Z,101981.25
2022-12-18T01:27:35.230Z,101989.72
2022-12-18T01:30:04.963Z,101996.97
2022-12-18T01:32:32.610Z,101999.28
2022-12-18T01:34:59.453Z,101999.69
2022-12-18T01:37:27.411Z,101994.88
2022-12-18T01:39:55.217Z,101984.84
2022-12-18T01:42:22.480Z,101981.50
2022-12-18T01:45:00.698Z,101984.50
2022-12-18T01:47:46.292Z,101981.94
2022-12-18T01:50:23.890Z,101980.25
2022-12-18T01:53:00.480Z,101979.25
2022-12-18T01:55:30.421Z,101985.41
2022-12-18T01:57:59.597Z,101979.94
2022-12-18T02:00:27.465Z,101980.28
2022-12-18T02:02:54.548Z,101980.38
2022-12-18T02:05:57.090Z,101978.25
2022-12-18T02:08:33.894Z,101973.19
2022-12-18T02:11:45.710Z,101965.25
2022-12-18T02:14:24.994Z,101972.09
2022-12-18T02:17:10.944Z,101972.03
2022-12-18T02:20:03.605Z,101973.44
2022-12-18T02:22:54.958Z,101964.34
2022-12-18T02:25:43.583Z,101964.47
2022-12-18T02:28:14.306Z,101953.31
2022-12-18T02:30:43.190Z,101958.69
2022-12-18T02:33:13.300Z,101952.34
2022-12-18T02:35:42.641Z,101969.00
2022-12-18T02:38:10.281Z,101968.44
2022-12-18T02:40:39.945Z,101978.72
2022-12-18T02:43:14.181Z,101976.25
2022-12-18T02:45:49.628Z,101978.31
2022-12-18T02:48:20.666Z,101979.06
2022-12-18T02:51:04.997Z,101974.06
2022-12-18T02:53:41.447Z,101965.25
2022-12-18T02:56:51.261Z,101972.84
2022-12-18T02:59:27.461Z,101981.97
2022-12-18T03:02:05.739Z,101976.13
2022-12-18T03:04:49.248Z,101973.19
2022-12-18T03:07:24.649Z,101977.03
2022-12-18T03:09:56.217Z,101966.97
2022-12-18T03:12:35.876Z,101978.19
2022-12-18T03:15:17.444Z,101979.72
2022-12-18T03:18:02.376Z,101979.88
2022-12-18T03:20:35.102Z,101981.94
2022-12-18T03:23:12.363Z,101969.41
2022-12-18T03:25:42.702Z,101956.69
2022-12-18T03:28:15.553Z,101962.72
2022-12-18T03:30:45.765Z,101965.00
2022-12-18T03:33:26.628Z,101950.28
2022-12-18T03:35:55.130Z,101945.41
2022-12-18T03:38:23.216Z,101938.66
2022-12-18T03:41:16.949Z,101930.53
2022-12-18T03:44:31.070Z,101938.97
2022-12-18T03:47:21.559Z,101951.66
2022-12-18T03:49:56.831Z,101959.72
2022-12-18T03:52:41.708Z,101955.25
2022-12-18T03:55:10.628Z,101945.47
2022-12-18T03:57:39.570Z,101948.06
2022-12-18T04:00:16.188Z,101951.09
2022-12-18T04:02:57.870Z,101955.38
2022-12-18T04:05:35.800Z,101947.09
2022-12-18T04:08:03.226Z,101947.53
2022-12-18T04:10:31.382Z,101951.25
2022-12-18T04:12:59.597Z,101948.56
2022-12-18T04:15:26.911Z,101948.94
2022-12-18T04:17:53.610Z,101940.91
2022-12-18T04:20:23.857Z,101939.81
2022-12-18T04:22:50.496Z,101947.31
2022-12-18T04:25:19.360Z,101944.41
2022-12-18T04:28:18.416Z,101940.34
2022-12-18T04:30:44.964Z,101940.56
2022-12-18T04:33:13.427Z,101941.31
2022-12-18T04:35:41.228Z,101948.59
2022-12-18T04:38:11.754Z,101942.72
2022-12-18T04:40:39.177Z,101940.13
2022-12-18T04:43:12.040Z,101942.38
2022-12-18T04:45:38.900Z,101949.25
2022-12-18T04:48:07.134Z,101950.88
2022-12-18T04:50:33.670Z,101938.00
2022-12-18T04:53:00.224Z,101941.53
2022-12-18T04:55:27.858Z,101937.63
2022-12-18T04:57:54.676Z,101934.34
2022-12-18T05:00:21.249Z,101928.88
2022-12-18T05:02:48.056Z,101921.94
2022-12-18T05:05:14.782Z,101926.97
2022-12-18T05:07:41.387Z,101922.19
2022-12-18T05:10:08.505Z,101924.13
2022-12-18T05:12:35.023Z,101913.19
2022-12-18T05:15:01.548Z,101917.59
2022-12-18T05:17:28.065Z,101918.84
2022-12-18T05:19:54.554Z,101912.78
2022-12-18T05:22:21.160Z,101914.84
2022-12-18T05:24:47.978Z,101913.53
2022-12-18T05:27:14.479Z,101915.69
2022-12-18T05:29:40.989Z,101918.31
2022-12-18T05:32:07.495Z,101905.31
2022-12-18T05:34:34.402Z,101905.31
2022-12-18T05:37:00.897Z,101908.47
2022-12-18T05:39:27.590Z,101907.41
2022-12-18T05:41:54.154Z,101916.44
2022-12-18T05:44:20.676Z,101915.75
2022-12-18T05:46:47.259Z,101918.72
2022-12-18T05:49:13.780Z,101926.13
2022-12-18T05:51:40.325Z,101935.84
2022-12-18T05:54:07.926Z,101936.44
2022-12-18T05:56:34.709Z,101941.78
2022-12-18T05:59:01.314Z,101938.47
2022-12-18T06:01:28.086Z,101943.19
2022-12-18T06:03:55.730Z,101934.06
2022-12-18T06:06:27.906Z,101938.31
2022-12-18T06:08:55.641Z,101942.78
2022-12-18T06:11:25.578Z,101949.94
2022-12-18T06:13:58.169Z,101947.16
2022-12-18T06:16:25.226Z,101961.50
2022-12-18T06:18:51.815Z,101967.88
2022-12-18T06:21:18.436Z,101972.88
2022-12-18T06:23:44.965Z,101984.16
2022-12-18T06:26:13.403Z,101982.50
2022-12-18T06:28:39.959Z,101985.63
2022-12-18T06:31:08.023Z,101979.56
2022-12-18T06:33:35.693Z,101967.84
2022-12-18T06:36:10.668Z,101975.31
2022-12-18T06:38:38.967Z,101973.19
2022-12-18T06:41:10.781Z,101968.63
2022-12-18T06:43:37.582Z,101974.13
2022-12-18T06:46:05.585Z,101970.16
2022-12-18T06:48:33.365Z,101970.47
2022-12-18T06:51:00.007Z,101958.75
2022-12-18T06:53:27.160Z,101954.03
2022-12-18T06:55:53.777Z,101951.38
2022-12-18T06:58:20.387Z,101939.66
2022-12-18T07:00:47.623Z,101935.84
2022-12-18T07:03:14.357Z,101942.88
2022-12-18T07:05:41.812Z,101932.19
2022-12-18T07:08:09.097Z,101935.69
2022-12-18T07:10:47.563Z,101928.13
2022-12-18T07:13:16.762Z,101931.66
2022-12-18T07:15:44.112Z,101929.94
2022-12-18T07:18:11.589Z,101925.44
2022-12-18T07:20:38.126Z,101922.31
2022-12-18T07:23:06.094Z,101916.84
2022-12-18T07:25:36.599Z,101927.63
2022-12-18T07:28:04.034Z,101920.13
2022-12-18T07:30:30.662Z,101920.47
2022-12-18T07:32:57.306Z,101919.31
2022-12-18T07:35:25.399Z,101926.31
2022-12-18T07:37:52.348Z,101922.16
2022-12-18T07:40:19.115Z,101921.44
2022-12-18T07:42:45.704Z,101925.19
2022-12-18T07:45:12.250Z,101913.69
2022-12-18T07:47:39.251Z,101912.97
2022-12-18T07:50:06.612Z,101912.28
2022-12-18T07:52:33.196Z,101919.16
2022-12-18T07:54:59.971Z,101919.94
2022-12-18T07:57:52.541Z,101918.97
2022-12-18T08:00:13.689Z,101925.94
2022-12-18T08:02:40.344Z,101922.78
2022-12-18T08:05:09.297Z,101926.97
2022-12-18T08:07:35.876Z,101923.31
2022-12-18T08:10:02.582Z,101924.34
2022-12-18T08:12:29.115Z,101919.72
2022-12-18T08:14:55.647Z,101925.13
2022-12-18T08:17:22.268Z,101925.13
2022-12-18T08:19:48.880Z,101926.31
2022-12-18T08:22:15.385Z,101915.13
2022-12-18T08:24:41.970Z,101917.09
2022-12-18T08:29:55.043Z,101883.75
2022-12-18T08:32:21.607Z,101887.72
2022-12-18T08:34:48.339Z,101888.81
2022-12-18T08:37:14.873Z,101876.28
2022-12-18T08:39:41.503Z,101870.59
2022-12-18T08:42:26.553Z,101864.03
2022-12-18T08:44:53.072Z,101850.28
2022-12-18T08:47:19.567Z,101863.31
2022-12-18T08:49:46.397Z,101863.31
2022-12-18T08:52:15.869Z,101866.97
2022-12-18T08:54:42.435Z,101869.75
2022-12-18T08:57:09.000Z,101865.72
2022-12-18T08:59:35.586Z,101866.66
2022-12-18T09:02:02.338Z,101862.88
2022-12-18T09:04:29.102Z,101859.88
2022-12-18T09:06:57.022Z,101855.44
2022-12-18T09:09:23.554Z,101853.19
2022-12-18T09:11:50.133Z,101853.19
2022-12-18T09:14:16.717Z,101854.31
2022-12-18T09:16:43.762Z,101853.44
2022-12-18T09:19:10.648Z,101835.41
2022-12-18T09:21:37.614Z,101826.44
2022-12-18T09:24:09.040Z,101821.56
2022-12-18T09:26:36.062Z,101822.81
2022-12-18T09:29:03.918Z,101841.81
2022-12-18T09:31:30.698Z,101832.09
2022-12-18T09:33:57.659Z,101825.94
2022-12-18T09:36:24.349Z,101825.78
2022-12-18T09:38:51.041Z,101828.25
2022-12-18T09:41:36.564Z,101840.44
2022-12-18T09:44:12.101Z,101840.44
2022-12-18T09:46:48.674Z,101841.06
2022-12-18T09:49:19.264Z,101836.88
2022-12-18T09:51:56.971Z,101849.56
2022-12-18T09:54:31.986Z,101845.03
2022-12-18T09:56:58.609Z,101843.28
2022-12-18T09:59:31.729Z,101840.97
2022-12-18T10:01:58.516Z,101837.81
2022-12-18T10:04:31.466Z,101843.00
2022-12-18T10:07:17.291Z,101836.19
2022-12-18T10:10:07.899Z,101822.06
2022-12-18T10:16:41.467Z,101803.78
2022-12-18T10:19:29.913Z,101807.88
2022-12-18T10:22:18.091Z,101800.31
2022-12-18T10:24:59.870Z,101797.38
2022-12-18T10:27:27.966Z,101795.69
2022-12-18T10:29:54.980Z,101791.16
2022-12-18T10:32:27.250Z,101796.78
2022-12-18T10:35:00.473Z,101783.06
2022-12-18T10:37:30.527Z,101779.31
2022-12-18T10:40:18.427Z,101765.97
2022-12-18T10:43:04.339Z,101754.69
2022-12-18T10:45:30.886Z,101760.09
2022-12-18T10:47:57.502Z,101761.47
2022-12-18T10:51:01.301Z,101759.03
2022-12-18T10:53:26.183Z,101761.94
2022-12-18T10:55:55.428Z,101755.56
2022-12-18T10:58:32.470Z,101753.81
2022-12-18T11:01:10.490Z,101754.59
2022-12-18T11:03:46.366Z,101738.38
2022-12-18T11:06:18.306Z,101744.81
2022-12-18T11:08:59.261Z,101746.75
2022-12-18T11:11:26.398Z,101738.13
2022-12-18T11:14:07.747Z,101732.78
2022-12-18T11:19:42.185Z,101727.09
2022-12-18T11:22:27.141Z,101722.09
2022-12-18T11:28:25.902Z,101720.69
2022-12-18T11:31:21.717Z,101710.50
2022-12-18T11:34:27.398Z,101705.19
2022-12-18T11:36:48.268Z,101701.22
2022-12-18T11:39:55.918Z,101689.22
2022-12-18T11:42:50.618Z,101692.50
2022-12-18T11:45:30.253Z,101677.38
2022-12-18T11:48:02.692Z,101678.34
2022-12-18T11:50:44.923Z,101662.22
2022-12-18T11:53:12.930Z,101664.53
2022-12-18T11:55:51.985Z,101666.38
2022-12-18T11:58:38.691Z,101661.13
2022-12-18T12:01:32.053Z,101664.13
2022-12-18T12:04:13.253Z,101658.50
2022-12-18T12:06:52.004Z,101651.69
2022-12-18T12:09:30.246Z,101657.75
2022-12-18T12:12:18.545Z,101660.59
2022-12-18T12:15:28.256Z,101649.44
2022-12-18T12:18:19.457Z,101653.00
2022-12-18T12:20:53.635Z,101644.91
2022-12-18T12:23:32.252Z,101648.06
2022-12-18T12:26:24.891Z,101645.13
2022-12-18T12:28:54.542Z,101636.69
2022-12-18T12:31:34.592Z,101640.50
2022-12-18T12:34:22.653Z,101629.66
2022-12-18T12:37:12.844Z,101626.19
2022-12-18T12:39:43.356Z,101623.56
2022-12-18T12:42:38.265Z,101620.94
2022-12-18T12:45:07.637Z,101612.59
2022-12-18T12:47:41.655Z,101609.91
2022-12-18T12:50:16.601Z,101610.75
2022-12-18T12:52:54.386Z,101613.56
2022-12-18T12:55:27.709Z,101613.09
2022-12-18T12:58:19.993Z,101618.31
2022-12-18T13:01:18.421Z,101616.50
2022-12-18T13:04:16.260Z,101612.38
2022-12-18T13:07:27.990Z,101604.25
2022-12-18T13:11:56.301Z,101595.81
2022-12-18T13:14:31.131Z,101605.66
2022-12-18T13:17:22.711Z,101602.03
2022-12-18T13:20:05.400Z,101602.69
2022-12-18T13:22:45.845Z,101598.81
2022-12-18T13:25:37.104Z,101597.69
2022-12-18T13:28:35.872Z,101595.88
2022-12-18T13:31:03.510Z,101586.81
2022-12-18T13:33:29.915Z,101593.47
2022-12-18T13:36:04.138Z,101587.97
2022-12-18T13:38:39.357Z,101592.38
2022-12-18T13:41:28.914Z,101581.84
2022-12-18T13:43:58.942Z,101585.75
2022-12-18T13:46:28.368Z,101582.38
2022-12-18T13:48:57.013Z,101580.91
2022-12-18T13:51:25.431Z,101578.34
2022-12-18T13:53:51.880Z,101575.06
2022-12-18T13:56:22.197Z,101574.06
2022-12-18T13:59:23.227Z,101564.56
2022-12-18T14:01:58.559Z,101559.78
2022-12-18T14:04:36.465Z,101556.72
2022-12-18T14:07:11.826Z,101557.22
2022-12-18T14:10:26.093Z,101542.72
2022-12-18T14:12:57.727Z,101539.31
2022-12-18T14:15:27.357Z,101529.34
2022-12-18T14:17:58.028Z,101516.56
2022-12-18T14:20:26.738Z,101518.81
2022-12-18T14:22:53.917Z,101517.50
2022-12-18T14:25:23.506Z,101512.84
2022-12-18T14:28:08.643Z,101500.19
2022-12-18T14:30:43.555Z,101491.91
2022-12-18T14:33:10.266Z,101494.25
2022-12-18T14:35:40.424Z,101496.03
2022-12-18T14:38:23.456Z,101494.72
2022-12-18T14:40:54.472Z,101490.16
2022-12-18T14:43:21.975Z,101492.13
2022-12-18T14:45:50.359Z,101486.22
2022-12-18T14:48:23.024Z,101484.50
2022-12-18T14:51:03.540Z,101482.97
2022-12-18T14:53:40.428Z,101488.84
2022-12-18T14:56:21.636Z,101483.66
2022-12-18T14:58:51.287Z,101472.22
2022-12-18T15:01:24.992Z,101485.22
2022-12-18T15:03:53.459Z,101488.00
2022-12-18T15:06:38.358Z,101484.44
2022-12-18T15:09:24.311Z,101478.25
2022-12-18T15:11:59.643Z,101476.47
2022-12-18T15:14:38.325Z,101483.25
2022-12-18T15:17:15.949Z,101482.25
2022-12-18T15:19:44.580Z,101473.13
2022-12-18T15:22:34.765Z,101474.16
2022-12-18T15:29:40.245Z,101467.84
2022-12-18T15:32:20.247Z,101445.91
2022-12-18T15:34:46.911Z,101464.97
2022-12-18T15:37:13.476Z,101466.34
2022-12-18T15:39:40.021Z,101454.03
2022-12-18T15:46:43.249Z,101447.81
2022-12-18T15:49:10.291Z,101440.53
2022-12-18T15:51:39.293Z,101440.66
2022-12-18T15:54:12.784Z,101432.81
2022-12-18T15:56:57.988Z,101433.69
2022-12-18T15:59:25.286Z,101426.22
2022-12-18T16:01:55.970Z,101437.19
2022-12-18T16:04:24.476Z,101435.47
2022-12-18T16:09:41.143Z,101439.81
2022-12-18T16:12:16.543Z,101420.94
2022-12-18T16:14:43.731Z,101420.81
2022-12-18T16:17:12.409Z,101434.66
2022-12-18T16:19:39.479Z,101433.81
2022-12-18T16:22:19.083Z,101428.84
2022-12-18T16:24:45.675Z,101419.25
2022-12-18T16:27:12.254Z,101425.56
2022-12-18T16:29:38.890Z,101425.31
2022-12-18T16:32:05.437Z,101429.75
2022-12-18T16:34:35.914Z,101429.75
2022-12-18T16:37:06.331Z,101434.03
2022-12-18T16:39:34.903Z,101426.63
2022-12-18T16:42:17.260Z,101429.72
2022-12-18T16:44:44.806Z,101430.47
2022-12-18T16:47:15.004Z,101437.09
2022-12-18T16:49:42.889Z,101435.63
2022-12-18T16:52:09.453Z,101441.81
2022-12-18T16:54:37.259Z,101435.75
2022-12-18T16:57:05.274Z,101429.47
2022-12-18T16:59:32.596Z,101433.94
2022-12-18T17:02:04.993Z,101425.94
2022-12-18T17:04:31.765Z,101423.94
2022-12-18T17:06:58.623Z,101416.41
2022-12-18T17:09:25.583Z,101398.00
2022-12-18T17:11:53.303Z,101400.84
2022-12-18T17:14:22.305Z,101390.72
2022-12-18T17:16:54.251Z,101370.25
2022-12-18T17:19:35.695Z,101373.69
2022-12-18T17:22:02.653Z,101376.88
2022-12-18T17:24:34.507Z,101363.44
2022-12-18T17:27:02.264Z,101366.41
2022-12-18T17:29:28.818Z,101367.25
2022-12-18T17:31:55.398Z,101370.22
2022-12-18T17:34:23.856Z,101375.66
2022-12-18T17:36:50.416Z,101367.50
2022-12-18T17:39:19.579Z,101369.22
2022-12-18T17:41:46.934Z,101378.84
2022-12-18T17:44:13.758Z,101374.41
2022-12-18T17:46:40.948Z,101384.50
2022-12-18T17:49:07.636Z,101386.50
2022-12-18T17:51:34.245Z,101385.91
2022-12-18T17:54:00.800Z,101388.59
2022-12-18T17:56:27.572Z,101394.03
2022-12-18T17:58:54.675Z,101390.44
2022-12-18T18:01:25.008Z,101394.31
2022-12-18T18:03:56.384Z,101390.09
2022-12-18T18:06:23.931Z,101382.56
2022-12-18T18:08:51.149Z,101377.38
2022-12-18T18:11:38.473Z,101380.59
2022-12-18T18:14:11.165Z,101380.69
2022-12-18T18:16:44.670Z,101372.94
2022-12-18T18:19:16.476Z,101362.66
2022-12-18T18:21:44.566Z,101372.31
2022-12-18T18:24:13.861Z,101372.94
2022-12-18T18:26:41.556Z,101381.09
2022-12-18T18:29:08.962Z,101385.28
2022-12-18T18:31:41.317Z,101382.78
2022-12-18T18:34:13.375Z,101388.84
2022-12-18T18:36:39.947Z,101383.69
2022-12-18T18:39:07.265Z,101384.66
2022-12-18T18:41:36.039Z,101379.94
2022-12-18T18:44:02.769Z,101395.66
2022-12-18T18:46:29.405Z,101389.25
2022-12-18T18:48:56.777Z,101393.19
2022-12-18T18:51:23.845Z,101388.00
2022-12-18T18:53:52.570Z,101392.22
2022-12-18T18:59:08.817Z,101397.25
2022-12-18T19:01:35.525Z,101403.81
2022-12-18T19:04:02.276Z,101397.63
2022-12-18T19:06:29.794Z,101397.63
2022-12-18T19:08:57.059Z,101399.38
2022-12-18T19:11:44.086Z,101398.63
2022-12-18T19:14:13.525Z,101398.16
2022-12-18T19:16:40.553Z,101399.88
2022-12-18T19:19:07.867Z,101405.03
2022-12-18T19:21:35.345Z,101401.22
2022-12-18T19:24:02.695Z,101395.88
2022-12-18T19:26:29.813Z,101393.41
2022-12-18T19:29:07.794Z,101398.38
2022-12-18T19:31:37.036Z,101393.69
2022-12-18T19:34:08.104Z,101393.03
2022-12-18T19:36:38.632Z,101384.91
2022-12-18T19:39:15.474Z,101369.84
2022-12-18T19:41:43.138Z,101372.19
2022-12-18T19:44:16.803Z,101370.00
2022-12-18T19:46:46.032Z,101382.09
2022-12-18T19:49:18.177Z,101375.03
2022-12-18T19:51:47.769Z,101366.91
2022-12-18T19:54:17.732Z,101366.53
2022-12-18T19:56:45.352Z,101362.78
2022-12-18T19:59:11.929Z,101375.28
2022-12-18T20:01:38.564Z,101370.22
2022-12-18T20:04:05.544Z,101363.91
2022-12-18T20:06:35.186Z,101362.44
2022-12-18T20:09:06.475Z,101362.81
2022-12-18T20:11:41.255Z,101359.63
2022-12-18T20:14:08.833Z,101359.72
2022-12-18T20:16:35.467Z,101369.50
2022-12-18T20:19:02.362Z,101368.00
2022-12-18T20:21:29.398Z,101378.38
2022-12-18T20:23:56.432Z,101373.31
2022-12-18T20:26:23.899Z,101360.97
2022-12-18T20:28:50.602Z,101358.88
2022-12-18T20:31:17.151Z,101364.78
2022-12-18T20:33:45.171Z,101368.13
2022-12-18T20:36:17.607Z,101366.41
2022-12-18T20:38:47.910Z,101368.00
2022-12-18T20:41:20.668Z,101370.97
2022-12-18T20:43:47.845Z,101362.09
2022-12-18T20:46:16.751Z,101373.81
2022-12-18T20:48:44.581Z,101369.47
2022-12-18T20:51:14.319Z,101369.50
2022-12-18T20:53:42.149Z,101368.00
2022-12-18T20:56:11.416Z,101372.94
2022-12-18T20:58:38.147Z,101367.75
2022-12-18T21:01:16.202Z,101368.25
2022-12-18T21:03:45.815Z,101370.69
2022-12-18T21:06:14.165Z,101369.72
2022-12-18T21:08:41.006Z,101369.50
2022-12-18T21:11:38.358Z,101364.31
2022-12-18T21:14:17.198Z,101358.50
2022-12-18T21:16:44.138Z,101359.13
2022-12-18T21:19:12.803Z,101366.03
2022-12-18T21:21:40.183Z,101366.66
2022-12-18T21:24:07.849Z,101369.59
2022-12-18T21:26:34.414Z,101373.94
2022-12-18T21:29:03.875Z,101365.41
2022-12-18T21:31:33.973Z,101366.28
2022-12-18T21:34:02.035Z,101371.94
2022-12-18T21:36:30.277Z,101370.69
2022-12-18T21:38:58.407Z,101370.72
2022-12-18T21:41:45.079Z,101368.50
2022-12-18T21:44:15.119Z,101363.06
2022-12-18T21:46:44.670Z,101374.78
2022-12-18T21:49:14.465Z,101374.28
2022-12-18T21:51:41.206Z,101378.00
2022-12-18T21:54:07.764Z,101354.69
2022-12-18T21:56:44.426Z,101363.81
2022-12-18T21:59:13.542Z,101361.94
2022-12-18T22:01:40.301Z,101358.63
2022-12-18T22:04:06.982Z,101357.63
2022-12-18T22:06:33.825Z,101348.00
2022-12-18T22:09:01.330Z,101340.47
2022-12-18T22:11:27.902Z,101333.56
2022-12-18T22:13:54.723Z,101335.03
2022-12-18T22:16:21.639Z,101327.28
2022-12-18T22:18:48.349Z,101319.00
2022-12-18T22:21:33.095Z,101315.81
2022-12-18T22:24:01.957Z,101318.00
2022-12-18T22:26:33.833Z,101312.22
2022-12-18T22:29:22.720Z,101309.88
2022-12-18T22:31:49.717Z,101307.53
2022-12-18T22:34:19.436Z,101301.22
2022-12-18T22:36:49.958Z,101295.06
2022-12-18T22:39:20.091Z,101290.78
2022-12-18T22:41:47.174Z,101293.34
2022-12-18T22:44:15.715Z,101286.69
2022-12-18T22:46:49.296Z,101294.88
2022-12-18T22:49:26.970Z,101284.53
2022-12-18T22:51:53.618Z,101282.06
2022-12-18T22:54:20.934Z,101279.13
2022-12-18T22:56:47.677Z,101275.16
2022-12-18T22:59:17.455Z,101279.59
2022-12-18T23:01:45.048Z,101274.66
2022-12-18T23:04:13.311Z,101269.72
2022-12-18T23:06:40.609Z,101271.50
2022-12-18T23:09:07.749Z,101268.53
2022-12-18T23:11:34.269Z,101259.66
2022-12-18T23:14:00.825Z,101255.44
2022-12-18T23:16:28.137Z,101253.09
2022-12-18T23:18:55.866Z,101249.38
2022-12-18T23:21:23.140Z,101242.09
2022-12-18T23:23:50.970Z,101243.13
2022-12-18T23:26:23.541Z,101231.88
2022-12-18T23:28:52.127Z,101219.53
2022-12-18T23:31:27.628Z,101225.25
2022-12-18T23:33:56.803Z,101221.78
2022-12-18T23:36:23.741Z,101219.25
2022-12-18T23:38:52.875Z,101209.09
2022-12-18T23:41:21.546Z,101210.94
2022-12-18T23:43:48.873Z,101203.22
2022-12-18T23:46:27.286Z,101207.34
2022-12-18T23:49:01.344Z,101193.44
2022-12-18T23:51:29.217Z,101202.44
2022-12-18T23:53:57.931Z,101188.25
2022-12-18T23:56:25.492Z,101186.88
2022-12-18T23:58:52.886Z,101180.78
